createdAt,value
2018-09-19T00:00:30.488Z,69.82
2018-09-19T00:03:04.839Z,70.15
2018-09-19T00:05:39.187Z,70.60
2018-09-19T00:08:13.609Z,70.55
2018-09-19T00:10:47.967Z,70.74
2018-09-19T00:13:22.307Z,70.61
2018-09-19T00:15:56.784Z,70.39
2018-09-19T00:18:31.490Z,70.85
2018-09-19T00:21:05.829Z,70.96
2018-09-19T00:23:40.153Z,71.25
2018-09-19T00:26:14.764Z,71.24
2018-09-19T00:28:49.489Z,71.61
2018-09-19T00:31:24.030Z,71.25
2018-09-19T00:33:58.421Z,71.54
2018-09-19T00:36:32.653Z,71.71
2018-09-19T00:39:08.262Z,72.26
2018-09-19T00:41:42.460Z,72.68
2018-09-19T00:44:16.787Z,72.91
2018-09-19T00:46:51.147Z,72.74
2018-09-19T00:49:25.543Z,73.37
2018-09-19T00:51:59.809Z,74.07
2018-09-19T00:54:34.237Z,74.37
2018-09-19T00:57:08.616Z,74.75
2018-09-19T00:59:43.162Z,75.69
2018-09-19T01:02:17.419Z,75.69
2018-09-19T01:04:51.807Z,76.18
2018-09-19T01:07:26.176Z,76.49
2018-09-19T01:10:00.570Z,77.04
2018-09-19T01:12:34.959Z,77.12
2018-09-19T01:15:09.332Z,77.89
2018-09-19T01:17:43.785Z,77.94
2018-09-19T01:20:18.012Z,77.73
2018-09-19T01:22:52.401Z,78.08
2018-09-19T01:25:26.632Z,78.42
2018-09-19T01:28:01.777Z,78.74
2018-09-19T01:30:36.267Z,78.18
2018-09-19T01:33:10.701Z,78.63
2018-09-19T01:35:44.939Z,78.52
2018-09-19T01:38:19.364Z,78.96
2018-09-19T01:40:53.963Z,78.73
2018-09-19T01:43:28.507Z,79.12
2018-09-19T01:46:03.353Z,79.08
2018-09-19T01:48:37.718Z,79.34
2018-09-19T01:51:12.489Z,80.26
2018-09-19T01:56:45.603Z,79.02
2018-09-19T01:59:20.030Z,77.44
2018-09-19T02:01:54.555Z,76.48
2018-09-19T02:04:28.973Z,76.10
2018-09-19T02:07:03.675Z,76.23
2018-09-19T02:09:38.122Z,75.69
2018-09-19T02:12:12.366Z,76.17
2018-09-19T02:14:46.712Z,76.23
2018-09-19T02:17:21.041Z,76.53
2018-09-19T02:19:55.429Z,76.07
2018-09-19T02:22:29.752Z,76.86
2018-09-19T02:25:04.185Z,76.50
2018-09-19T02:27:38.805Z,76.39
2018-09-19T02:30:13.197Z,77.17
2018-09-19T02:32:47.557Z,77.49
2018-09-19T02:35:21.957Z,77.45
2018-09-19T02:37:56.375Z,77.21
2018-09-19T02:40:35.970Z,76.81
2018-09-19T02:43:11.287Z,76.58
2018-09-19T02:45:54.051Z,76.74
2018-09-19T02:48:46.251Z,77.25
2018-09-19T02:51:20.833Z,77.41
2018-09-19T02:53:55.125Z,77.84
2018-09-19T02:56:29.452Z,78.30
2018-09-19T02:59:03.739Z,78.10
2018-09-19T03:01:38.039Z,78.41
2018-09-19T03:04:12.521Z,78.10
2018-09-19T03:06:46.889Z,78.12
2018-09-19T03:09:21.317Z,77.74
2018-09-19T03:11:55.686Z,77.42
2018-09-19T03:14:30.140Z,77.77
2018-09-19T03:17:04.636Z,78.02
2018-09-19T03:19:38.960Z,77.85
2018-09-19T03:22:13.212Z,78.02
2018-09-19T03:24:47.722Z,77.79
2018-09-19T03:27:21.963Z,77.49
2018-09-19T03:29:56.267Z,77.38
2018-09-19T03:32:30.674Z,77.80
2018-09-19T03:35:05.026Z,77.33
2018-09-19T03:37:39.284Z,77.52
2018-09-19T03:40:13.657Z,77.17
2018-09-19T03:42:48.050Z,77.39
2018-09-19T03:45:22.487Z,77.25
2018-09-19T03:47:56.760Z,77.10
2018-09-19T03:50:31.180Z,76.94
2018-09-19T03:53:05.605Z,77.11
2018-09-19T03:55:40.039Z,77.25
2018-09-19T03:58:14.448Z,77.19
2018-09-19T04:00:48.805Z,77.77
2018-09-19T04:03:23.195Z,77.76
2018-09-19T04:05:57.657Z,78.20
2018-09-19T04:08:32.282Z,78.43
2018-09-19T04:11:06.812Z,78.08
2018-09-19T04:13:41.139Z,78.25
2018-09-19T04:16:15.558Z,78.29
2018-09-19T04:18:49.863Z,78.12
2018-09-19T04:21:24.333Z,78.16
2018-09-19T04:23:58.612Z,77.87
2018-09-19T04:26:32.965Z,77.72
2018-09-19T04:29:07.304Z,77.91
2018-09-19T04:31:41.852Z,78.07
2018-09-19T04:34:16.694Z,77.86
2018-09-19T04:36:51.069Z,78.17
2018-09-19T04:39:25.506Z,78.05
2018-09-19T04:41:59.920Z,78.11
2018-09-19T04:44:34.315Z,78.01
2018-09-19T04:47:08.626Z,78.43
2018-09-19T04:49:43.101Z,78.36
2018-09-19T04:52:17.451Z,78.30
2018-09-19T04:54:51.844Z,78.97
2018-09-19T04:57:26.605Z,79.11
2018-09-19T05:00:17.791Z,79.46
2018-09-19T05:02:52.127Z,79.34
2018-09-19T05:05:43.394Z,79.38
2018-09-19T05:08:27.624Z,79.70
2018-09-19T05:11:01.896Z,79.60
2018-09-19T05:13:36.309Z,79.32
2018-09-19T05:16:10.606Z,79.50
2018-09-19T05:18:44.912Z,79.40
2018-09-19T05:21:19.228Z,79.48
2018-09-19T05:24:12.128Z,79.58
2018-09-19T05:26:46.491Z,79.08
2018-09-19T05:29:21.179Z,79.37
2018-09-19T05:31:55.613Z,79.35
2018-09-19T05:34:29.994Z,78.69
2018-09-19T05:37:04.403Z,78.71
2018-09-19T05:39:38.783Z,79.00
2018-09-19T05:42:13.177Z,79.11
2018-09-19T05:44:47.610Z,78.87
2018-09-19T05:47:22.003Z,78.89
2018-09-19T05:49:56.433Z,78.74
2018-09-19T05:52:30.857Z,78.62
2018-09-19T05:55:05.389Z,77.83
2018-09-19T05:57:39.867Z,77.08
2018-09-19T06:00:14.217Z,76.94
2018-09-19T06:02:48.485Z,76.06
2018-09-19T06:05:23.097Z,76.09
2018-09-19T06:07:57.547Z,75.60
2018-09-19T06:10:32.003Z,75.45
2018-09-19T06:13:06.311Z,74.71
2018-09-19T06:15:40.674Z,74.50
2018-09-19T06:18:15.118Z,74.51
2018-09-19T06:20:49.505Z,73.64
2018-09-19T06:23:23.935Z,73.55
2018-09-19T06:25:58.340Z,73.23
2018-09-19T06:28:32.620Z,73.06
2018-09-19T06:31:07.293Z,73.06
2018-09-19T06:33:41.693Z,72.49
2018-09-19T06:36:16.092Z,71.54
2018-09-19T06:38:50.324Z,70.07
2018-09-19T06:41:24.734Z,68.76
2018-09-19T06:43:59.139Z,61.67
2018-09-19T06:46:33.567Z,54.90
2018-09-19T06:49:07.805Z,49.32
2018-09-19T06:51:42.055Z,46.61
2018-09-19T06:54:16.509Z,43.99
2018-09-19T06:56:50.945Z,41.88
2018-09-19T06:59:25.763Z,41.24
2018-09-19T07:01:59.970Z,40.97
2018-09-19T07:04:34.319Z,40.62
2018-09-19T07:07:08.707Z,38.45
2018-09-19T07:09:42.979Z,38.48
2018-09-19T07:12:17.376Z,36.70
2018-09-19T07:14:51.637Z,35.30
2018-09-19T07:17:26.020Z,34.87
2018-09-19T07:20:00.418Z,36.30
2018-09-19T07:22:34.781Z,37.54
2018-09-19T07:25:09.260Z,41.69
2018-09-19T07:27:43.869Z,44.92
2018-09-19T07:30:18.168Z,46.58
2018-09-19T07:32:52.645Z,46.60
2018-09-19T07:35:27.028Z,47.08
2018-09-19T07:38:01.658Z,44.83
2018-09-19T07:40:35.932Z,47.50
2018-09-19T07:43:10.600Z,48.50
2018-09-19T07:45:44.975Z,51.49
2018-09-19T07:48:19.350Z,51.02
2018-09-19T07:50:53.784Z,54.25
2018-09-19T07:53:32.751Z,52.90
2018-09-19T07:56:07.142Z,52.18
2018-09-19T07:58:41.550Z,54.10
2018-09-19T08:01:16.007Z,53.77
2018-09-19T08:03:50.340Z,54.06
2018-09-19T08:06:24.734Z,54.92
2018-09-19T08:09:00.417Z,55.26
2018-09-19T08:11:34.704Z,55.19
2018-09-19T08:14:09.105Z,57.29
2018-09-19T08:16:43.443Z,54.08
2018-09-19T08:19:17.823Z,53.25
2018-09-19T08:21:52.231Z,53.37
2018-09-19T08:24:29.780Z,54.41
2018-09-19T08:27:03.971Z,54.31
2018-09-19T08:29:38.449Z,54.00
2018-09-19T08:32:12.760Z,53.38
2018-09-19T08:34:47.203Z,54.97
2018-09-19T08:37:21.643Z,55.63
2018-09-19T08:39:55.959Z,54.61
2018-09-19T08:42:30.372Z,55.15
2018-09-19T08:45:04.796Z,57.69
2018-09-19T08:47:39.249Z,57.38
2018-09-19T08:50:13.724Z,57.92
2018-09-19T08:52:48.017Z,55.62
2018-09-19T08:55:22.336Z,56.11
2018-09-19T08:57:56.880Z,54.47
2018-09-19T09:00:31.283Z,54.62
2018-09-19T09:03:06.013Z,52.27
2018-09-19T09:05:40.335Z,48.92
2018-09-19T09:08:14.695Z,44.93
2018-09-19T09:10:49.007Z,47.46
2018-09-19T09:13:23.672Z,46.14
2018-09-19T09:15:58.060Z,44.78
2018-09-19T09:18:32.448Z,45.82
2018-09-19T09:21:06.889Z,45.79
2018-09-19T09:23:41.271Z,44.74
2018-09-19T09:26:15.674Z,47.45
2018-09-19T09:28:49.922Z,46.64
2018-09-19T09:31:24.277Z,48.18
2018-09-19T09:33:58.657Z,47.27
2018-09-19T09:36:32.929Z,48.09
2018-09-19T09:39:07.776Z,48.30
2018-09-19T09:41:42.082Z,50.60
2018-09-19T09:44:16.337Z,51.32
2018-09-19T09:46:50.718Z,51.18
2018-09-19T09:49:25.104Z,49.43
2018-09-19T09:51:59.561Z,50.32
2018-09-19T09:54:34.317Z,50.60
2018-09-19T09:57:09.204Z,51.52
2018-09-19T09:59:43.572Z,51.60
2018-09-19T10:02:17.981Z,50.21
2018-09-19T10:04:52.388Z,50.20
2018-09-19T10:07:26.731Z,50.55
2018-09-19T10:10:01.361Z,49.41
2018-09-19T10:12:35.829Z,49.91
2018-09-19T10:15:10.224Z,49.02
2018-09-19T10:17:44.819Z,49.68
2018-09-19T10:20:19.384Z,50.55
2018-09-19T10:22:53.872Z,51.06
2018-09-19T10:25:28.197Z,49.79
2018-09-19T10:28:02.587Z,49.03
2018-09-19T10:30:37.080Z,49.44
2018-09-19T10:33:11.417Z,50.18
2018-09-19T10:35:45.673Z,51.67
2018-09-19T10:38:20.019Z,51.82
2018-09-19T10:40:54.471Z,51.87
2018-09-19T10:43:28.932Z,51.67
2018-09-19T10:46:03.336Z,52.08
2018-09-19T10:48:37.769Z,52.33
2018-09-19T10:51:12.072Z,51.88
2018-09-19T10:53:46.467Z,50.56
2018-09-19T10:56:20.985Z,49.65
2018-09-19T10:58:55.335Z,49.92
2018-09-19T11:01:29.659Z,48.11
2018-09-19T11:04:04.074Z,48.07
2018-09-19T11:06:38.421Z,48.89
2018-09-19T11:09:13.047Z,49.15
2018-09-19T11:11:47.487Z,47.53
2018-09-19T11:14:21.727Z,47.47
2018-09-19T11:16:56.239Z,47.40
2018-09-19T11:19:30.732Z,47.74
2018-09-19T11:22:05.235Z,47.44
2018-09-19T11:24:39.516Z,46.92
2018-09-19T11:27:13.896Z,46.14
2018-09-19T11:29:48.293Z,45.49
2018-09-19T11:32:22.582Z,45.87
2018-09-19T11:34:57.187Z,45.92
2018-09-19T11:37:31.475Z,45.33
2018-09-19T11:40:05.907Z,45.98
2018-09-19T11:42:40.262Z,45.37
2018-09-19T11:45:14.807Z,46.57
2018-09-19T11:47:49.123Z,46.03
2018-09-19T11:50:23.510Z,45.64
2018-09-19T11:52:58.036Z,45.68
2018-09-19T11:55:32.496Z,46.05
2018-09-19T11:58:06.754Z,45.64
2018-09-19T12:00:51.944Z,45.58
2018-09-19T12:03:36.675Z,44.31
2018-09-19T12:06:11.008Z,43.71
2018-09-19T12:08:46.653Z,42.84
2018-09-19T12:11:21.184Z,42.96
2018-09-19T12:13:55.624Z,43.06
2018-09-19T12:16:30.063Z,43.57
2018-09-19T12:19:05.731Z,43.61
2018-09-19T12:21:45.518Z,43.97
2018-09-19T12:24:42.964Z,43.94
2018-09-19T12:27:33.497Z,44.13
2018-09-19T12:30:28.368Z,44.48
2018-09-19T12:33:02.785Z,42.96
2018-09-19T12:35:36.992Z,42.88
2018-09-19T12:38:11.641Z,42.80
2018-09-19T12:40:46.223Z,42.64
2018-09-19T12:43:20.636Z,42.52
2018-09-19T12:45:54.985Z,42.10
2018-09-19T12:48:29.293Z,41.80
2018-09-19T12:51:03.712Z,41.86
2018-09-19T12:53:38.170Z,41.22
2018-09-19T12:56:12.581Z,41.17
2018-09-19T12:58:46.948Z,40.92
2018-09-19T13:01:21.380Z,41.83
2018-09-19T13:03:55.848Z,41.59
2018-09-19T13:06:30.304Z,41.11
2018-09-19T13:09:07.312Z,40.49
2018-09-19T13:11:41.695Z,39.99
2018-09-19T13:14:26.932Z,40.51
2018-09-19T13:17:01.320Z,41.03
2018-09-19T13:19:35.744Z,41.12
2018-09-19T13:22:10.176Z,41.06
2018-09-19T13:24:44.474Z,41.28
2018-09-19T13:27:19.068Z,41.21
2018-09-19T13:29:53.488Z,41.20
2018-09-19T13:32:28.235Z,41.78
2018-09-19T13:35:02.801Z,41.45
2018-09-19T13:37:37.225Z,41.67
2018-09-19T13:40:11.633Z,42.32
2018-09-19T13:42:46.040Z,42.10
2018-09-19T13:45:20.472Z,42.46
2018-09-19T13:47:54.863Z,42.60
2018-09-19T13:50:43.202Z,42.25
2018-09-19T13:53:21.892Z,41.96
2018-09-19T13:55:56.309Z,42.34
2018-09-19T13:58:30.748Z,41.75
2018-09-19T14:01:05.171Z,42.47
2018-09-19T14:03:39.657Z,42.90
2018-09-19T14:06:14.066Z,42.87
2018-09-19T14:08:48.472Z,43.41
2018-09-19T14:11:22.744Z,42.37
2018-09-19T14:13:57.010Z,42.30
2018-09-19T14:16:31.360Z,42.57
2018-09-19T14:19:06.470Z,42.81
2018-09-19T14:21:41.041Z,42.82
2018-09-19T14:24:15.869Z,42.66
2018-09-19T14:26:50.125Z,42.15
2018-09-19T14:29:24.575Z,40.94
2018-09-19T14:31:58.958Z,40.11
2018-09-19T14:34:34.430Z,38.03
2018-09-19T14:37:08.844Z,36.58
2018-09-19T14:39:43.255Z,36.54
2018-09-19T14:42:17.952Z,36.37
2018-09-19T14:44:52.386Z,35.48
2018-09-19T14:47:26.623Z,34.49
2018-09-19T14:50:01.356Z,35.14
2018-09-19T14:52:35.729Z,34.61
2018-09-19T14:55:10.266Z,36.85
2018-09-19T14:57:44.597Z,35.75
2018-09-19T15:00:19.052Z,33.88
2018-09-19T15:02:53.456Z,33.95
2018-09-19T15:05:27.813Z,34.33
2018-09-19T15:08:02.305Z,35.17
2018-09-19T15:10:36.631Z,35.95
2018-09-19T15:13:10.954Z,36.47
2018-09-19T15:15:45.348Z,37.86
2018-09-19T15:18:19.817Z,38.10
2018-09-19T15:20:54.133Z,38.31
2018-09-19T15:23:28.510Z,38.98
2018-09-19T15:26:02.964Z,38.26
2018-09-19T15:28:37.393Z,39.16
2018-09-19T15:31:11.704Z,39.59
2018-09-19T15:33:46.012Z,39.88
2018-09-19T15:36:20.444Z,40.34
2018-09-19T15:38:54.901Z,39.76
2018-09-19T15:41:30.440Z,40.42
2018-09-19T15:44:15.725Z,40.13
2018-09-19T15:46:50.225Z,40.27
2018-09-19T15:49:24.652Z,40.67
2018-09-19T15:51:59.036Z,40.52
2018-09-19T15:54:33.364Z,39.41
2018-09-19T15:57:07.766Z,39.42
2018-09-19T15:59:42.153Z,39.78
2018-09-19T16:02:16.656Z,39.15
2018-09-19T16:04:51.047Z,38.95
2018-09-19T16:07:25.483Z,38.46
2018-09-19T16:10:00.014Z,37.41
2018-09-19T16:12:34.524Z,38.27
2018-09-19T16:15:09.203Z,37.38
2018-09-19T16:17:43.877Z,37.79
2018-09-19T16:20:18.583Z,38.01
2018-09-19T16:22:53.330Z,38.09
2018-09-19T16:25:27.979Z,39.12
2018-09-19T16:28:02.630Z,40.15
2018-09-19T16:30:37.166Z,41.46
2018-09-19T16:33:12.035Z,41.98
2018-09-19T16:35:46.702Z,42.39
2018-09-19T16:38:21.367Z,42.39
2018-09-19T16:40:56.302Z,43.17
2018-09-19T16:43:30.908Z,44.01
2018-09-19T16:46:05.331Z,44.12
2018-09-19T16:48:39.673Z,45.74
2018-09-19T16:51:14.096Z,45.18
2018-09-19T16:53:48.666Z,44.85
2018-09-19T16:56:23.208Z,45.21
2018-09-19T16:58:58.098Z,45.35
2018-09-19T17:01:32.553Z,45.92
2018-09-19T17:04:07.078Z,45.11
2018-09-19T17:06:41.701Z,44.86
2018-09-19T17:09:16.277Z,44.75
2018-09-19T17:11:50.827Z,46.39
2018-09-19T17:14:25.402Z,45.64
2018-09-19T17:19:44.343Z,46.56
2018-09-19T17:22:18.729Z,46.58
2018-09-19T17:24:53.153Z,47.60
2018-09-19T17:27:27.577Z,47.71
2018-09-19T17:30:01.919Z,48.04
2018-09-19T17:32:36.332Z,48.77
2018-09-19T17:35:10.660Z,48.21
2018-09-19T17:37:45.100Z,48.17
2018-09-19T17:40:19.422Z,48.90
2018-09-19T17:42:53.679Z,49.33
2018-09-19T17:45:28.120Z,49.15
2018-09-19T17:48:02.689Z,49.64
2018-09-19T17:50:37.155Z,49.91
2018-09-19T17:53:11.485Z,49.91
2018-09-19T17:55:45.956Z,50.97
2018-09-19T17:58:20.336Z,51.06
2018-09-19T18:00:55.111Z,51.54
2018-09-19T18:03:29.449Z,52.23
2018-09-19T18:06:03.860Z,52.28
2018-09-19T18:08:38.287Z,52.69
2018-09-19T18:11:12.706Z,53.33
2018-09-19T18:13:47.059Z,52.77
2018-09-19T18:16:22.026Z,52.87
2018-09-19T18:18:56.380Z,53.11
2018-09-19T18:21:30.785Z,52.63
2018-09-19T18:24:05.102Z,53.03
2018-09-19T18:26:39.377Z,52.75
2018-09-19T18:29:14.090Z,53.17
2018-09-19T18:31:48.677Z,52.91
2018-09-19T18:34:23.339Z,54.22
2018-09-19T18:36:58.073Z,54.19
2018-09-19T18:39:32.701Z,54.45
2018-09-19T18:42:07.327Z,54.35
2018-09-19T18:44:41.931Z,55.03
2018-09-19T18:47:16.538Z,55.61
2018-09-19T18:49:51.334Z,55.24
2018-09-19T18:52:26.801Z,55.91
2018-09-19T18:55:01.414Z,56.30
2018-09-19T18:57:36.066Z,56.12
2018-09-19T19:00:10.724Z,56.40
2018-09-19T19:02:45.394Z,56.25
2018-09-19T19:05:19.965Z,56.43
2018-09-19T19:07:54.725Z,56.99
2018-09-19T19:10:29.446Z,57.33
2018-09-19T19:13:04.645Z,56.95
2018-09-19T19:15:39.365Z,57.53
2018-09-19T19:18:13.976Z,57.59
2018-09-19T19:20:48.876Z,57.42
2018-09-19T19:23:23.479Z,57.99
2018-09-19T19:25:58.169Z,57.77
2018-09-19T19:28:32.743Z,57.96
2018-09-19T19:31:07.361Z,57.81
2018-09-19T19:33:41.915Z,57.41
2018-09-19T19:36:16.585Z,59.15
2018-09-19T19:38:54.722Z,58.87
2018-09-19T19:41:30.545Z,57.92
2018-09-19T19:44:04.959Z,58.85
2018-09-19T19:46:39.441Z,58.54
2018-09-19T19:49:14.145Z,58.70
2018-09-19T19:51:48.625Z,58.41
2018-09-19T19:54:23.311Z,58.56
2018-09-19T19:56:57.952Z,58.18
2018-09-19T19:59:32.587Z,58.78
2018-09-19T20:02:07.105Z,58.99
2018-09-19T20:04:41.565Z,58.61
2018-09-19T20:07:17.126Z,59.20
2018-09-19T20:09:51.526Z,59.48
2018-09-19T20:12:26.104Z,60.21
2018-09-19T20:15:00.601Z,59.90
2018-09-19T20:17:35.284Z,60.00
2018-09-19T20:20:09.959Z,60.15
2018-09-19T20:22:44.466Z,60.37
2018-09-19T20:25:19.141Z,60.06
2018-09-19T20:27:53.809Z,61.37
2018-09-19T20:30:28.387Z,60.55
2018-09-19T20:33:02.972Z,60.41
2018-09-19T20:35:37.440Z,59.97
2018-09-19T20:38:11.834Z,59.86
2018-09-19T20:40:46.394Z,59.45
2018-09-19T20:43:21.040Z,59.57
2018-09-19T20:45:55.858Z,59.00
2018-09-19T20:48:30.357Z,58.90
2018-09-19T20:51:04.961Z,60.14
2018-09-19T20:53:39.569Z,59.52
2018-09-19T20:56:14.243Z,59.11
2018-09-19T20:58:48.801Z,58.35
2018-09-19T21:01:23.423Z,58.37
2018-09-19T21:03:58.162Z,58.55
2018-09-19T21:06:33.088Z,59.24
2018-09-19T21:09:07.665Z,58.88
2018-09-19T21:11:42.363Z,59.50
2018-09-19T21:14:16.921Z,59.46
2018-09-19T21:16:51.528Z,59.89
2018-09-19T21:19:27.284Z,60.41
2018-09-19T21:22:02.132Z,60.14
2018-09-19T21:24:36.713Z,61.12
2018-09-19T21:27:11.489Z,61.33
2018-09-19T21:29:46.013Z,61.89
2018-09-19T21:32:20.717Z,61.22
2018-09-19T21:34:55.346Z,62.12
2018-09-19T21:37:30.718Z,61.96
2018-09-19T21:40:05.239Z,62.28
2018-09-19T21:42:40.015Z,62.38
2018-09-19T21:45:14.628Z,62.99
2018-09-19T21:47:49.357Z,62.38
2018-09-19T21:50:24.133Z,62.85
2018-09-19T21:52:58.682Z,63.55
2018-09-19T21:55:33.293Z,63.79
2018-09-19T21:58:07.943Z,63.16
2018-09-19T22:00:43.075Z,63.51
2018-09-19T22:03:17.826Z,63.82
2018-09-19T22:05:52.670Z,62.66
2018-09-19T22:08:27.329Z,63.28
2018-09-19T22:11:02.032Z,63.68
2018-09-19T22:13:36.660Z,64.51
2018-09-19T22:16:11.182Z,64.06
2018-09-19T22:18:45.857Z,64.31
2018-09-19T22:21:20.604Z,63.99
2018-09-19T22:23:55.448Z,65.01
2018-09-19T22:26:29.990Z,65.03
2018-09-19T22:29:04.439Z,64.40
2018-09-19T22:31:39.167Z,64.84
2018-09-19T22:34:13.832Z,64.63
2018-09-19T22:36:48.420Z,64.53
2018-09-19T22:39:22.974Z,64.83
2018-09-19T22:41:57.530Z,64.48
2018-09-19T22:44:32.165Z,64.77
2018-09-19T22:47:07.113Z,64.74
2018-09-19T22:49:41.947Z,65.12
2018-09-19T22:52:16.509Z,65.13
2018-09-19T22:54:51.181Z,65.93
2018-09-19T22:57:25.852Z,66.20
2018-09-19T23:00:00.419Z,66.12
2018-09-19T23:02:35.198Z,66.45
2018-09-19T23:05:09.775Z,66.23
2018-09-19T23:07:44.621Z,65.97
2018-09-19T23:10:19.565Z,66.25
2018-09-19T23:12:54.111Z,66.54
2018-09-19T23:15:28.750Z,65.79
2018-09-19T23:18:03.513Z,66.43
2018-09-19T23:20:38.088Z,66.10
2018-09-19T23:23:12.709Z,66.43
2018-09-19T23:25:47.364Z,66.73
2018-09-19T23:28:22.036Z,66.52
2018-09-19T23:31:04.085Z,66.81
2018-09-19T23:36:43.281Z,66.92
2018-09-19T23:42:18.660Z,67.48
2018-09-19T23:44:57.400Z,67.41
2018-09-19T23:47:52.060Z,67.51
2018-09-19T23:50:31.162Z,67.47
2018-09-19T23:56:04.664Z,67.74
2018-09-19T23:58:39.325Z,67.18
